SBVT/VIX METAR and TAF weather

Enter ICAO airport designator
Station Type Date Time Source
SBVT METAR 2021/04/17 01:00 UTC NOAA

SBVT 170100Z 02004KT 6000 -RA FEW013 BKN022 BKN070 22/21 Q1017 RERA


Station Type Date Time Source
SBVT Decoded METAR 2021/04/17 01:00 UTC NOAA

Vitoria Aeroporto , Brazil (SBVT) 20-16S 040-17W 4M
Apr 16, 2021 - 09:00 PM EDT / 2021.04.17 0100 UTC
Wind: from the NNE (020 degrees) at 5 MPH (4 KT):0
Visibility: 3 mile(s):0
Sky conditions: mostly cloudy
Weather: light rain
Temperature: 71 F (22 C)
Dew Point: 69 F (21 C)
Relative Humidity: 94%
Pressure (altimeter): 30.03 in. Hg (1017 hPa)
ob: SBVT 170100Z 02004KT 6000 -RA FEW013 BKN022 BKN070 22/21 Q1017 RERA
cycle: 1

Station Type Date Time Source
SBVT TAF 2021/04/17 00:00 UTC NOAA

TAF SBVT 162050Z 1700/1724 17010KT 9999 SCT020 TN19/1709Z TX27/1717Z
BECMG 1700/1702 32005KT
BECMG 1706/1709 26005KT
BECMG 1712/1714 15009KT
BECMG 1718/1720 12011KT
RMK PGW

Example: see airport list